createdAt,value
2022-12-15T00:00:52.423Z,94131
2022-12-15T00:02:02.175Z,94129
2022-12-15T00:03:12.035Z,94126
2022-12-15T00:04:20.613Z,94124
2022-12-15T00:05:30.276Z,94121
2022-12-15T00:06:39.999Z,94121
2022-12-15T00:07:48.668Z,94124
2022-12-15T00:08:57.344Z,94127
2022-12-15T00:10:06.045Z,94121
2022-12-15T00:11:15.739Z,94122
2022-12-15T00:12:25.481Z,94119
2022-12-15T00:13:36.146Z,94121
2022-12-15T00:14:45.893Z,94121
2022-12-15T00:15:54.619Z,94119
2022-12-15T00:17:03.277Z,94126
2022-12-15T00:18:12.975Z,94127
2022-12-15T00:19:21.659Z,94127
2022-12-15T00:20:31.364Z,94131
2022-12-15T00:21:41.042Z,94141
2022-12-15T00:22:49.723Z,94140
2022-12-15T00:23:59.407Z,94138
2022-12-15T00:25:08.110Z,94137
2022-12-15T00:26:16.820Z,94140
2022-12-15T00:27:25.486Z,94141
2022-12-15T00:28:35.133Z,94139
2022-12-15T00:29:44.850Z,94140
2022-12-15T00:30:55.076Z,94139
2022-12-15T00:32:02.276Z,94134
2022-12-15T00:33:11.928Z,94133
2022-12-15T00:34:19.591Z,94132
2022-12-15T00:35:28.303Z,94132
2022-12-15T00:36:36.970Z,94140
2022-12-15T00:37:46.631Z,94141
2022-12-15T00:39:00.559Z,94134
2022-12-15T00:40:06.950Z,94128
2022-12-15T00:41:15.633Z,94132
2022-12-15T00:42:25.325Z,94132
2022-12-15T00:43:33.540Z,94131
2022-12-15T00:44:41.656Z,94126
2022-12-15T00:45:50.349Z,94127
2022-12-15T00:46:59.072Z,94131
2022-12-15T00:48:07.752Z,94124
2022-12-15T00:49:15.428Z,94128
2022-12-15T00:50:24.137Z,94132
2022-12-15T00:51:33.833Z,94128
2022-12-15T00:52:41.480Z,94132
2022-12-15T00:53:50.180Z,94135
2022-12-15T00:54:58.853Z,94133
2022-12-15T00:56:07.507Z,94140
2022-12-15T00:57:17.215Z,94147
2022-12-15T00:58:24.876Z,94145
2022-12-15T00:59:33.710Z,94144
2022-12-15T01:00:43.340Z,94148
2022-12-15T01:01:52.160Z,94147
2022-12-15T01:03:02.155Z,94146
2022-12-15T01:04:10.539Z,94147
2022-12-15T01:05:19.221Z,94151
2022-12-15T01:06:28.895Z,94153
2022-12-15T01:07:36.576Z,94157
2022-12-15T01:08:46.249Z,94156
2022-12-15T01:09:55.952Z,94159
2022-12-15T01:11:03.646Z,94157
2022-12-15T01:12:11.345Z,94157
2022-12-15T01:13:20.007Z,94160
2022-12-15T01:14:29.657Z,94164
2022-12-15T01:15:39.382Z,94164
2022-12-15T01:16:49.035Z,94164
2022-12-15T01:17:58.721Z,94165
2022-12-15T01:19:08.491Z,94163
2022-12-15T01:20:17.180Z,94163
2022-12-15T01:21:25.871Z,94157
2022-12-15T01:22:35.601Z,94154
2022-12-15T01:23:44.289Z,94154
2022-12-15T01:24:52.952Z,94152
2022-12-15T01:26:00.668Z,94155
2022-12-15T01:27:10.370Z,94152
2022-12-15T01:28:18.084Z,94159
2022-12-15T01:29:26.756Z,94156
2022-12-15T01:30:36.446Z,94159
2022-12-15T01:31:46.212Z,94158
2022-12-15T01:32:54.840Z,94160
2022-12-15T01:34:03.605Z,94165
2022-12-15T01:35:13.284Z,94169
2022-12-15T01:36:23.951Z,94172
2022-12-15T01:37:31.616Z,94167
2022-12-15T01:38:41.297Z,94173
2022-12-15T01:39:51.970Z,94174
2022-12-15T01:41:00.629Z,94184
2022-12-15T01:42:08.307Z,94175
2022-12-15T01:43:16.981Z,94176
2022-12-15T01:44:25.646Z,94180
2022-12-15T01:45:35.435Z,94178
2022-12-15T01:46:43.173Z,94178
2022-12-15T01:47:51.810Z,94185
2022-12-15T01:49:01.424Z,94183
2022-12-15T01:50:09.145Z,94179
2022-12-15T01:51:18.841Z,94177
2022-12-15T01:52:28.510Z,94182
2022-12-15T01:53:37.182Z,94175
2022-12-15T01:54:48.577Z,94175
2022-12-15T01:55:56.497Z,94179
2022-12-15T01:57:05.221Z,94177
2022-12-15T01:58:14.892Z,94177
2022-12-15T01:59:22.538Z,94174
2022-12-15T02:00:31.229Z,94179
2022-12-15T02:01:41.039Z,94181
2022-12-15T02:02:49.708Z,94177
2022-12-15T02:03:59.326Z,94178
2022-12-15T02:05:08.977Z,94175
2022-12-15T02:06:18.630Z,94176
2022-12-15T02:07:28.308Z,94180
2022-12-15T02:08:36.061Z,94178
2022-12-15T02:09:44.773Z,94183
2022-12-15T02:10:53.432Z,94181
2022-12-15T02:12:02.101Z,94186
2022-12-15T02:13:11.768Z,94181
2022-12-15T02:14:20.451Z,94183
2022-12-15T02:15:29.161Z,94186
2022-12-15T02:16:38.967Z,94182
2022-12-15T02:17:46.567Z,94175
2022-12-15T02:18:55.294Z,94182
2022-12-15T02:20:04.023Z,94182
2022-12-15T02:21:13.641Z,94188
2022-12-15T02:22:23.329Z,94193
2022-12-15T02:23:32.358Z,94190
2022-12-15T02:24:40.708Z,94189
2022-12-15T02:25:51.379Z,94194
2022-12-15T02:27:01.076Z,94201
2022-12-15T02:28:09.756Z,94202
2022-12-15T02:29:19.436Z,94213
2022-12-15T02:30:28.095Z,94214
2022-12-15T02:31:37.850Z,94220
2022-12-15T02:32:46.468Z,94222
2022-12-15T02:33:55.136Z,94219
2022-12-15T02:35:04.811Z,94218
2022-12-15T02:36:12.530Z,94220
2022-12-15T02:37:22.201Z,94224
2022-12-15T02:38:30.942Z,94228
2022-12-15T02:39:39.708Z,94231
2022-12-15T02:40:49.388Z,94229
2022-12-15T02:41:59.048Z,94231
2022-12-15T02:43:07.704Z,94228
2022-12-15T02:44:17.364Z,94234
2022-12-15T02:45:26.057Z,94237
2022-12-15T02:46:34.694Z,94239
2022-12-15T02:47:44.386Z,94240
2022-12-15T02:48:53.053Z,94243
2022-12-15T02:50:02.770Z,94242
2022-12-15T02:51:12.416Z,94240
2022-12-15T02:52:21.138Z,94241
2022-12-15T02:53:31.241Z,94239
2022-12-15T02:54:38.460Z,94234
2022-12-15T02:55:47.120Z,94236
2022-12-15T02:56:56.769Z,94233
2022-12-15T02:58:06.434Z,94243
2022-12-15T02:59:16.107Z,94239
2022-12-15T03:00:23.811Z,94244
2022-12-15T03:01:32.625Z,94246
2022-12-15T03:02:42.237Z,94249
2022-12-15T03:03:50.825Z,94252
2022-12-15T03:05:00.528Z,94252
2022-12-15T03:06:09.212Z,94249
2022-12-15T03:07:17.886Z,94250
2022-12-15T03:08:27.611Z,94249
2022-12-15T03:09:37.290Z,94248
2022-12-15T03:10:46.936Z,94244
2022-12-15T03:11:56.615Z,94247
2022-12-15T03:13:04.303Z,94246
2022-12-15T03:14:13.970Z,94248
2022-12-15T03:15:23.656Z,94250
2022-12-15T03:16:34.311Z,94250
2022-12-15T03:17:44.010Z,94247
2022-12-15T03:18:53.712Z,94247
2022-12-15T03:20:02.353Z,94246
2022-12-15T03:21:12.042Z,94243
2022-12-15T03:22:19.695Z,94242
2022-12-15T03:23:29.743Z,94243
2022-12-15T03:24:39.113Z,94246
2022-12-15T03:25:49.663Z,94248
2022-12-15T03:26:58.401Z,94250
2022-12-15T03:28:06.098Z,94251
2022-12-15T03:29:14.776Z,94250
2022-12-15T03:30:23.444Z,94250
2022-12-15T03:31:32.252Z,94250
2022-12-15T03:32:41.819Z,94249
2022-12-15T03:33:49.496Z,94254
2022-12-15T03:34:58.174Z,94252
2022-12-15T03:36:07.872Z,94258
2022-12-15T03:37:16.531Z,94263
2022-12-15T03:38:25.213Z,94266
2022-12-15T03:39:34.882Z,94265
2022-12-15T03:40:44.627Z,94268
2022-12-15T03:41:54.290Z,94272
2022-12-15T03:43:01.957Z,94268
2022-12-15T03:44:10.619Z,94266
2022-12-15T03:45:20.304Z,94260
2022-12-15T03:46:27.995Z,94258
2022-12-15T03:47:36.650Z,94270
2022-12-15T03:48:46.313Z,94265
2022-12-15T03:49:54.992Z,94265
2022-12-15T03:51:04.712Z,94271
2022-12-15T03:52:13.427Z,94270
2022-12-15T03:53:23.094Z,94270
2022-12-15T03:54:32.771Z,94272
2022-12-15T03:55:42.464Z,94273
2022-12-15T03:56:51.198Z,94279
2022-12-15T03:58:00.810Z,94278
2022-12-15T03:59:09.456Z,94281
2022-12-15T04:00:19.144Z,94291
2022-12-15T04:01:27.926Z,94285
2022-12-15T04:02:36.584Z,94290
2022-12-15T04:03:45.298Z,94288
2022-12-15T04:04:52.881Z,94289
2022-12-15T04:06:01.552Z,94292
2022-12-15T04:07:11.254Z,94291
2022-12-15T04:08:20.924Z,94299
2022-12-15T04:09:30.610Z,94301
2022-12-15T04:10:38.282Z,94298
2022-12-15T04:11:46.906Z,94298
2022-12-15T04:12:56.612Z,94300
2022-12-15T04:14:05.269Z,94294
2022-12-15T04:15:15.975Z,94292
2022-12-15T04:16:24.724Z,94296
2022-12-15T04:17:34.338Z,94303
2022-12-15T04:18:44.065Z,94304
2022-12-15T04:19:51.739Z,94306
2022-12-15T04:21:00.447Z,94302
2022-12-15T04:22:13.765Z,94302
2022-12-15T04:23:20.737Z,94300
2022-12-15T04:24:30.389Z,94308
2022-12-15T04:25:39.095Z,94302
2022-12-15T04:26:47.812Z,94298
2022-12-15T04:28:01.475Z,94299
2022-12-15T04:29:07.146Z,94296
2022-12-15T04:30:15.811Z,94293
2022-12-15T04:31:25.605Z,94296
2022-12-15T04:32:34.167Z,94292
2022-12-15T04:33:42.862Z,94298
2022-12-15T04:34:51.545Z,94299
2022-12-15T04:36:00.214Z,94303
2022-12-15T04:37:08.870Z,94299
2022-12-15T04:38:16.553Z,94298
2022-12-15T04:39:25.199Z,94305
2022-12-15T04:40:34.862Z,94303
2022-12-15T04:41:43.517Z,94301
2022-12-15T04:42:53.309Z,94309
2022-12-15T04:44:03.102Z,94310
2022-12-15T04:45:17.034Z,94310
2022-12-15T04:46:48.361Z,94311
2022-12-15T04:47:58.032Z,94317
2022-12-15T04:49:06.748Z,94313
2022-12-15T04:50:16.418Z,94317
2022-12-15T04:51:26.094Z,94313
2022-12-15T04:52:35.774Z,94313
2022-12-15T04:53:45.446Z,94315
2022-12-15T04:54:53.153Z,94320
2022-12-15T04:56:02.873Z,94318
2022-12-15T04:57:13.538Z,94316
2022-12-15T04:58:23.204Z,94312
2022-12-15T04:59:32.876Z,94312
2022-12-15T05:00:40.671Z,94309
2022-12-15T05:01:50.393Z,94310
2022-12-15T05:02:59.969Z,94314
2022-12-15T05:04:07.699Z,94319
2022-12-15T05:05:17.371Z,94319
2022-12-15T05:06:27.105Z,94312
2022-12-15T05:07:36.783Z,94315
2022-12-15T05:08:46.474Z,94310
2022-12-15T05:10:01.018Z,94308
2022-12-15T05:11:05.825Z,94313
2022-12-15T05:12:15.524Z,94310
2022-12-15T05:13:24.205Z,94312
2022-12-15T05:14:33.867Z,94316
2022-12-15T05:15:42.568Z,94322
2022-12-15T05:16:51.242Z,94326
2022-12-15T05:18:00.935Z,94327
2022-12-15T05:19:10.599Z,94330
2022-12-15T05:20:20.276Z,94328
2022-12-15T05:21:29.932Z,94328
2022-12-15T05:22:36.597Z,94332
2022-12-15T05:23:46.291Z,94330
2022-12-15T05:24:55.959Z,94334
2022-12-15T05:26:04.636Z,94331
2022-12-15T05:27:13.315Z,94338
2022-12-15T05:28:21.976Z,94341
2022-12-15T05:29:31.712Z,94337
2022-12-15T05:30:41.373Z,94343
2022-12-15T05:31:51.002Z,94350
2022-12-15T05:33:00.696Z,94358
2022-12-15T05:34:10.331Z,94357
2022-12-15T05:35:20.019Z,94354
2022-12-15T05:36:28.720Z,94360
2022-12-15T05:37:38.399Z,94349
2022-12-15T05:38:48.060Z,94353
2022-12-15T05:39:57.810Z,94355
2022-12-15T05:41:07.476Z,94351
2022-12-15T05:42:17.177Z,94352
2022-12-15T05:43:26.620Z,94353
2022-12-15T05:44:33.489Z,94360
2022-12-15T05:45:42.170Z,94359
2022-12-15T05:46:50.950Z,94354
2022-12-15T05:48:00.577Z,94354
2022-12-15T05:49:08.253Z,94353
2022-12-15T05:50:16.891Z,94349
2022-12-15T05:51:26.567Z,94353
2022-12-15T05:52:36.256Z,94357
2022-12-15T05:53:46.907Z,94360
2022-12-15T05:54:56.596Z,94360
2022-12-15T05:56:06.272Z,94357
2022-12-15T05:57:15.930Z,94357
2022-12-15T05:58:23.632Z,94358
2022-12-15T05:59:32.304Z,94355
2022-12-15T06:00:41.964Z,94355
2022-12-15T06:01:51.719Z,94356
2022-12-15T06:03:00.451Z,94356
2022-12-15T06:04:10.065Z,94366
2022-12-15T06:05:19.665Z,94367
2022-12-15T06:06:29.329Z,94370
2022-12-15T06:07:37.019Z,94376
2022-12-15T06:08:46.716Z,94382
2022-12-15T06:09:56.404Z,94384
2022-12-15T06:11:04.067Z,94391
2022-12-15T06:12:13.771Z,94390
2022-12-15T06:13:22.444Z,94393
2022-12-15T06:14:31.092Z,94395
2022-12-15T06:15:40.860Z,94393
2022-12-15T06:16:50.597Z,94394
2022-12-15T06:17:59.089Z,94395
2022-12-15T06:19:08.744Z,94395
2022-12-15T06:20:18.436Z,94394
2022-12-15T06:21:28.131Z,94397
2022-12-15T06:22:36.812Z,94400
2022-12-15T06:23:46.471Z,94402
2022-12-15T06:24:56.211Z,94406
2022-12-15T06:26:05.869Z,94407
2022-12-15T06:27:15.530Z,94408
2022-12-15T06:28:25.194Z,94411
2022-12-15T06:29:34.897Z,94412
2022-12-15T06:30:43.573Z,94415
2022-12-15T06:31:53.317Z,94416
2022-12-15T06:33:02.917Z,94418
2022-12-15T06:34:12.609Z,94423
2022-12-15T06:35:21.311Z,94420
2022-12-15T06:36:31.254Z,94422
2022-12-15T06:37:40.608Z,94418
2022-12-15T06:38:49.922Z,94416
2022-12-15T06:39:58.951Z,94414
2022-12-15T06:41:06.625Z,94414
2022-12-15T06:42:16.299Z,94411
2022-12-15T06:43:24.955Z,94414
2022-12-15T06:44:34.644Z,94416
2022-12-15T06:45:44.322Z,94415
2022-12-15T06:46:54.093Z,94414
2022-12-15T06:48:03.765Z,94414
2022-12-15T06:49:12.427Z,94418
2022-12-15T06:50:22.117Z,94418
2022-12-15T06:51:31.853Z,94424
2022-12-15T06:52:41.499Z,94430
2022-12-15T06:53:51.205Z,94440
2022-12-15T06:55:00.870Z,94439
2022-12-15T06:56:08.563Z,94446
2022-12-15T06:57:18.253Z,94450
2022-12-15T06:58:27.934Z,94448
2022-12-15T06:59:36.607Z,94441
2022-12-15T07:00:46.298Z,94441
2022-12-15T07:01:55.196Z,94443
2022-12-15T07:03:03.930Z,94444
2022-12-15T07:04:13.452Z,94443
2022-12-15T07:05:21.992Z,94448
2022-12-15T07:06:30.650Z,94446
2022-12-15T07:07:39.351Z,94447
2022-12-15T07:08:48.968Z,94441
2022-12-15T07:09:58.638Z,94442
2022-12-15T07:11:06.325Z,94438
2022-12-15T07:12:16.003Z,94438
2022-12-15T07:13:25.706Z,94438
2022-12-15T07:14:34.371Z,94434
2022-12-15T07:15:44.066Z,94434
2022-12-15T07:16:52.695Z,94436
2022-12-15T07:18:02.353Z,94435
2022-12-15T07:19:12.070Z,94432
2022-12-15T07:20:24.156Z,94436
2022-12-15T07:21:31.384Z,94435
2022-12-15T07:22:40.095Z,94436
2022-12-15T07:23:55.115Z,94435
2022-12-15T07:25:00.408Z,94435
2022-12-15T07:26:11.364Z,94439
2022-12-15T07:27:16.731Z,94442
2022-12-15T07:28:27.645Z,94438
2022-12-15T07:29:34.051Z,94443
2022-12-15T07:30:43.740Z,94443
2022-12-15T07:31:51.473Z,94443
2022-12-15T07:33:00.084Z,94451
2022-12-15T07:34:09.738Z,94453
2022-12-15T07:35:18.393Z,94455
2022-12-15T07:36:27.082Z,94454
2022-12-15T07:37:36.746Z,94449
2022-12-15T07:38:45.447Z,94455
2022-12-15T07:39:55.068Z,94449
2022-12-15T07:41:04.723Z,94445
2022-12-15T07:42:14.405Z,94449
2022-12-15T07:43:24.060Z,94445
2022-12-15T07:44:33.744Z,94441
2022-12-15T07:45:46.845Z,94436
2022-12-15T07:46:54.057Z,94434
2022-12-15T07:48:03.738Z,94437
2022-12-15T07:49:13.411Z,94430
2022-12-15T07:50:23.099Z,94434
2022-12-15T07:51:31.770Z,94433
2022-12-15T07:52:41.432Z,94435
2022-12-15T07:53:49.104Z,94433
2022-12-15T07:54:57.797Z,94433
2022-12-15T07:56:09.216Z,94438
2022-12-15T07:57:17.116Z,94439
2022-12-15T07:58:26.806Z,94433
2022-12-15T07:59:35.557Z,94435
2022-12-15T08:00:48.716Z,94432
2022-12-15T08:01:55.129Z,94439
2022-12-15T08:03:04.685Z,94438
2022-12-15T08:04:14.209Z,94441
2022-12-15T08:05:22.950Z,94437
2022-12-15T08:06:31.614Z,94435
2022-12-15T08:07:41.311Z,94427
2022-12-15T08:08:50.113Z,94429
2022-12-15T08:09:58.630Z,94425
2022-12-15T08:11:08.367Z,94435
2022-12-15T08:12:16.989Z,94443
2022-12-15T08:14:00.510Z,94451
2022-12-15T08:14:37.320Z,94457
2022-12-15T08:15:45.983Z,94462
2022-12-15T08:16:55.772Z,94461
2022-12-15T08:18:03.331Z,94459
2022-12-15T08:19:12.041Z,94464
2022-12-15T08:20:21.645Z,94465
2022-12-15T08:21:30.302Z,94468
2022-12-15T08:22:40.072Z,94472
2022-12-15T08:23:48.740Z,94469
2022-12-15T08:24:56.383Z,94468
2022-12-15T08:26:06.086Z,94464
2022-12-15T08:27:14.794Z,94466
2022-12-15T08:28:23.437Z,94473
2022-12-15T08:29:50.453Z,94484
2022-12-15T08:30:43.740Z,94491
2022-12-15T08:31:52.576Z,94493
2022-12-15T08:33:01.073Z,94498
2022-12-15T08:34:10.766Z,94494
2022-12-15T08:35:47.301Z,94501
2022-12-15T08:36:31.099Z,94503
2022-12-15T08:37:40.774Z,94499
2022-12-15T08:38:50.442Z,94503
2022-12-15T08:40:00.204Z,94511
2022-12-15T08:41:08.870Z,94511
2022-12-15T08:42:17.518Z,94506
2022-12-15T08:43:27.221Z,94504
2022-12-15T08:44:36.878Z,94500
2022-12-15T08:45:45.710Z,94502
2022-12-15T08:46:54.303Z,94506
2022-12-15T08:48:03.997Z,94514
2022-12-15T08:49:18.031Z,94513
2022-12-15T08:50:24.307Z,94514
2022-12-15T08:51:33.006Z,94511
2022-12-15T08:52:55.478Z,94506
2022-12-15T08:53:53.313Z,94515
2022-12-15T08:55:01.979Z,94517
2022-12-15T08:56:10.643Z,94521
2022-12-15T08:57:20.328Z,94522
2022-12-15T08:58:29.010Z,94518
2022-12-15T08:59:38.700Z,94516
2022-12-15T09:00:48.361Z,94513
2022-12-15T09:01:57.107Z,94506
2022-12-15T09:03:06.699Z,94512
2022-12-15T09:04:15.392Z,94519
2022-12-15T09:05:24.008Z,94523
2022-12-15T09:06:33.680Z,94514
2022-12-15T09:07:42.339Z,94508
2022-12-15T09:08:52.007Z,94507
2022-12-15T09:10:01.705Z,94509
2022-12-15T09:11:10.388Z,94514
2022-12-15T09:12:20.061Z,94522
2022-12-15T09:13:27.723Z,94524
2022-12-15T09:14:37.384Z,94524
2022-12-15T09:16:08.692Z,94520
2022-12-15T09:16:57.824Z,94518
2022-12-15T09:18:07.450Z,94518
2022-12-15T09:19:17.137Z,94513
2022-12-15T09:20:25.837Z,94511
2022-12-15T09:21:35.505Z,94512
2022-12-15T09:22:45.177Z,94506
2022-12-15T09:23:54.843Z,94500
2022-12-15T09:25:02.509Z,94495
2022-12-15T09:26:11.248Z,94488
2022-12-15T09:27:20.917Z,94477
2022-12-15T09:28:30.576Z,94475
2022-12-15T09:29:41.264Z,94482
2022-12-15T09:30:50.966Z,94486
2022-12-15T09:32:00.717Z,94491
2022-12-15T09:33:11.360Z,94495
2022-12-15T09:34:21.038Z,94490
2022-12-15T09:35:29.702Z,94482
2022-12-15T09:36:39.383Z,94482
2022-12-15T09:37:51.520Z,94480
2022-12-15T09:38:55.700Z,94478
2022-12-15T09:40:05.344Z,94482
2022-12-15T09:41:14.003Z,94479
2022-12-15T09:42:23.702Z,94482
2022-12-15T09:43:35.871Z,94484
2022-12-15T09:44:42.049Z,94481
2022-12-15T09:45:51.749Z,94480
2022-12-15T09:47:00.397Z,94480
2022-12-15T09:48:10.031Z,94473
2022-12-15T09:49:18.796Z,94471
2022-12-15T09:50:27.446Z,94471
2022-12-15T09:51:37.110Z,94481
2022-12-15T09:52:45.772Z,94481
2022-12-15T09:53:56.520Z,94484
2022-12-15T09:55:05.167Z,94483
2022-12-15T09:56:13.845Z,94479
2022-12-15T09:57:22.501Z,94477
2022-12-15T09:58:32.213Z,94472
2022-12-15T09:59:41.901Z,94470
2022-12-15T10:00:52.713Z,94470
2022-12-15T10:02:00.316Z,94468
2022-12-15T10:03:08.995Z,94471
2022-12-15T10:04:18.650Z,94466
2022-12-15T10:05:43.673Z,94466
2022-12-15T10:06:36.901Z,94460
2022-12-15T10:07:45.567Z,94460
2022-12-15T10:08:55.234Z,94457
2022-12-15T10:10:04.893Z,94451
2022-12-15T10:11:14.569Z,94456
2022-12-15T10:12:23.262Z,94454
2022-12-15T10:13:33.359Z,94449
2022-12-15T10:14:41.590Z,94449
2022-12-15T10:15:52.274Z,94443
2022-12-15T10:17:01.923Z,94448
2022-12-15T10:18:10.622Z,94446
2022-12-15T10:19:20.282Z,94444
2022-12-15T10:20:28.945Z,94448
2022-12-15T10:21:38.659Z,94438
2022-12-15T10:22:50.228Z,94439
2022-12-15T10:23:59.229Z,94436
2022-12-15T10:25:10.357Z,94432
2022-12-15T10:26:18.526Z,94430
2022-12-15T10:27:28.205Z,94432
2022-12-15T10:28:37.890Z,94436
2022-12-15T10:29:49.059Z,94438
2022-12-15T10:30:56.301Z,94443
2022-12-15T10:32:05.973Z,94442
2022-12-15T10:33:13.678Z,94442
2022-12-15T10:34:21.321Z,94447
2022-12-15T10:35:31.020Z,94454
2022-12-15T10:36:40.713Z,94459
2022-12-15T10:37:50.361Z,94456
2022-12-15T10:38:58.078Z,94446
2022-12-15T10:40:07.799Z,94446
2022-12-15T10:41:17.515Z,94445
2022-12-15T10:42:26.198Z,94442
2022-12-15T10:43:36.359Z,94442
2022-12-15T10:44:44.636Z,94441
2022-12-15T10:45:54.350Z,94439
2022-12-15T10:47:04.004Z,94437
2022-12-15T10:48:13.713Z,94436
2022-12-15T10:49:22.412Z,94436
2022-12-15T10:50:32.071Z,94439
2022-12-15T10:51:41.747Z,94432
2022-12-15T10:52:51.439Z,94435
2022-12-15T10:54:00.148Z,94429
2022-12-15T10:55:09.817Z,94427
2022-12-15T10:56:19.493Z,94429
2022-12-15T10:57:30.195Z,94426
2022-12-15T10:58:38.900Z,94416
2022-12-15T10:59:50.241Z,94410
2022-12-15T11:00:58.276Z,94404
2022-12-15T11:02:07.073Z,94396
2022-12-15T11:03:16.754Z,94391
2022-12-15T11:04:26.414Z,94389
2022-12-15T11:05:36.026Z,94385
2022-12-15T11:06:45.713Z,94391
2022-12-15T11:07:55.411Z,94396
2022-12-15T11:09:05.075Z,94398
2022-12-15T11:10:13.772Z,94405
2022-12-15T11:11:25.909Z,94403
2022-12-15T11:12:33.149Z,94412
2022-12-15T11:13:43.723Z,94410
2022-12-15T11:14:53.459Z,94413
2022-12-15T11:16:02.164Z,94409
2022-12-15T11:17:11.844Z,94407
2022-12-15T11:18:19.508Z,94407
2022-12-15T11:19:28.282Z,94401
2022-12-15T11:20:38.875Z,94402
2022-12-15T11:21:49.559Z,94400
2022-12-15T11:22:59.239Z,94400
2022-12-15T11:24:08.902Z,94393
2022-12-15T11:25:17.562Z,94392
2022-12-15T11:26:27.245Z,94388
2022-12-15T11:27:36.954Z,94390
2022-12-15T11:28:46.824Z,94383
2022-12-15T11:29:56.285Z,94389
2022-12-15T11:31:04.973Z,94385
2022-12-15T11:32:14.653Z,94385
2022-12-15T11:33:24.382Z,94383
2022-12-15T11:34:34.137Z,94383
2022-12-15T11:35:43.741Z,94380
2022-12-15T11:36:53.447Z,94375
2022-12-15T11:38:03.135Z,94378
2022-12-15T11:39:12.943Z,94374
2022-12-15T11:40:21.547Z,94373
2022-12-15T11:41:30.233Z,94370
2022-12-15T11:42:38.908Z,94371
2022-12-15T11:43:48.579Z,94372
2022-12-15T11:44:58.265Z,94382
2022-12-15T11:46:06.937Z,94381
2022-12-15T11:47:15.603Z,94391
2022-12-15T11:48:25.280Z,94391
2022-12-15T11:49:39.274Z,94393
2022-12-15T11:50:44.646Z,94397
2022-12-15T11:51:55.270Z,94397
2022-12-15T11:53:04.935Z,94390
2022-12-15T11:54:14.595Z,94386
2022-12-15T11:55:29.699Z,94386
2022-12-15T11:56:32.936Z,94384
2022-12-15T11:57:42.613Z,94382
2022-12-15T11:58:51.284Z,94387
2022-12-15T12:00:00.944Z,94386
2022-12-15T12:01:10.641Z,94390
2022-12-15T12:02:19.449Z,94389
2022-12-15T12:03:29.072Z,94387
2022-12-15T12:04:38.738Z,94388
2022-12-15T12:05:49.418Z,94394
2022-12-15T12:06:59.112Z,94382
2022-12-15T12:08:08.810Z,94383
2022-12-15T12:09:17.490Z,94381
2022-12-15T12:10:27.140Z,94378
2022-12-15T12:11:35.811Z,94379
2022-12-15T12:12:45.474Z,94375
2022-12-15T12:13:54.174Z,94370
2022-12-15T12:15:04.843Z,94366
2022-12-15T12:16:14.523Z,94360
2022-12-15T12:17:23.196Z,94350
2022-12-15T12:18:32.239Z,94352
2022-12-15T12:19:40.560Z,94346
2022-12-15T12:20:50.323Z,94342
2022-12-15T12:21:59.908Z,94338
2022-12-15T12:23:09.552Z,94331
2022-12-15T12:24:19.262Z,94337
2022-12-15T12:25:28.971Z,94333
2022-12-15T12:26:37.645Z,94328
2022-12-15T12:27:48.714Z,94319
2022-12-15T12:28:57.970Z,94313
2022-12-15T12:30:07.740Z,94309
2022-12-15T12:31:17.439Z,94307
2022-12-15T12:32:26.116Z,94309
2022-12-15T12:33:34.811Z,94306
2022-12-15T12:34:44.485Z,94306
2022-12-15T12:35:54.158Z,94306
2022-12-15T12:37:03.916Z,94302
2022-12-15T12:38:13.563Z,94301
2022-12-15T12:39:23.270Z,94304
2022-12-15T12:40:32.947Z,94301
2022-12-15T12:41:42.668Z,94303
2022-12-15T12:42:53.863Z,94301
2022-12-15T12:44:08.427Z,94304
2022-12-15T12:45:17.107Z,94305
2022-12-15T12:46:25.771Z,94303
2022-12-15T12:47:34.454Z,94302
2022-12-15T12:48:44.206Z,94299
2022-12-15T12:49:53.883Z,94301
2022-12-15T12:51:02.540Z,94301
2022-12-15T12:52:11.215Z,94304
2022-12-15T12:53:20.854Z,94305
2022-12-15T12:54:30.560Z,94302
2022-12-15T12:55:39.225Z,94308
2022-12-15T12:57:57.562Z,94311
2022-12-15T12:59:07.245Z,94310
2022-12-15T13:00:15.047Z,94310
2022-12-15T13:01:24.743Z,94315
2022-12-15T13:02:34.425Z,94312
2022-12-15T13:03:44.004Z,94311
2022-12-15T13:04:52.668Z,94308
2022-12-15T13:06:01.369Z,94308
2022-12-15T13:07:12.833Z,94304
2022-12-15T13:08:19.704Z,94305
2022-12-15T13:09:28.353Z,94311
2022-12-15T13:10:38.059Z,94313
2022-12-15T13:11:48.943Z,94307
2022-12-15T13:12:57.447Z,94310
2022-12-15T13:14:10.434Z,94311
2022-12-15T13:15:17.768Z,94310
2022-12-15T13:16:27.456Z,94312
2022-12-15T13:17:38.193Z,94324
2022-12-15T13:18:48.870Z,94328
2022-12-15T13:19:58.531Z,94333
2022-12-15T13:21:06.206Z,94329
2022-12-15T13:22:15.872Z,94329
2022-12-15T13:23:25.611Z,94334
2022-12-15T13:24:33.279Z,94329
2022-12-15T13:25:42.949Z,94327
2022-12-15T13:26:52.717Z,94332
2022-12-15T13:28:01.393Z,94322
2022-12-15T13:29:11.094Z,94317
2022-12-15T13:30:19.789Z,94310
2022-12-15T13:31:28.626Z,94298
2022-12-15T13:32:38.218Z,94296
2022-12-15T13:33:45.826Z,94293
2022-12-15T13:34:54.514Z,94285
2022-12-15T13:36:03.173Z,94287
2022-12-15T13:37:12.890Z,94280
2022-12-15T13:38:22.551Z,94282
2022-12-15T13:39:31.240Z,94277
2022-12-15T13:40:40.917Z,94285
2022-12-15T13:42:32.483Z,94287
2022-12-15T13:43:03.175Z,94290
2022-12-15T13:44:11.848Z,94290
2022-12-15T13:45:21.697Z,94291
2022-12-15T13:46:30.394Z,94283
2022-12-15T13:47:39.999Z,94284
2022-12-15T13:48:49.679Z,94288
2022-12-15T13:50:02.004Z,94285
2022-12-15T13:51:08.956Z,94284
2022-12-15T13:52:17.695Z,94282
2022-12-15T13:53:27.314Z,94281
2022-12-15T13:54:37.112Z,94279
2022-12-15T13:55:45.704Z,94284
2022-12-15T13:56:55.382Z,94280
2022-12-15T13:58:05.092Z,94291
2022-12-15T13:59:13.769Z,94292
2022-12-15T14:00:23.445Z,94295
2022-12-15T14:01:33.740Z,94295
2022-12-15T14:02:41.902Z,94295
2022-12-15T14:03:51.533Z,94294
2022-12-15T14:05:01.175Z,94289
2022-12-15T14:06:10.880Z,94292
2022-12-15T14:07:19.548Z,94292
2022-12-15T14:08:29.223Z,94290
2022-12-15T14:09:38.900Z,94286
2022-12-15T14:10:46.585Z,94285
2022-12-15T14:11:56.240Z,94291
2022-12-15T14:13:15.076Z,94286
2022-12-15T14:14:15.537Z,94289
2022-12-15T14:15:25.258Z,94284
2022-12-15T14:16:33.941Z,94284
2022-12-15T14:17:42.580Z,94280
2022-12-15T14:18:52.249Z,94278
2022-12-15T14:20:01.972Z,94277
2022-12-15T14:21:11.661Z,94280
2022-12-15T14:22:27.007Z,94290
2022-12-15T14:23:31.437Z,94287
2022-12-15T14:24:41.212Z,94289
2022-12-15T14:25:50.393Z,94283
2022-12-15T14:27:00.133Z,94283
2022-12-15T14:28:12.140Z,94283
2022-12-15T14:29:17.479Z,94286
2022-12-15T14:30:26.169Z,94283
2022-12-15T14:31:35.889Z,94279
2022-12-15T14:32:45.547Z,94282
2022-12-15T14:33:55.218Z,94279
2022-12-15T14:35:02.891Z,94278
2022-12-15T14:36:11.553Z,94273
2022-12-15T14:37:21.237Z,94271
2022-12-15T14:38:30.933Z,94269
2022-12-15T14:39:39.614Z,94263
2022-12-15T14:40:49.158Z,94262
2022-12-15T14:41:56.966Z,94266
2022-12-15T14:43:06.610Z,94267
2022-12-15T14:44:31.182Z,94263
2022-12-15T14:45:24.941Z,94260
2022-12-15T14:46:34.633Z,94258
2022-12-15T14:47:43.327Z,94257
2022-12-15T14:48:54.267Z,94254
2022-12-15T14:50:03.665Z,94258
2022-12-15T14:51:12.335Z,94262
2022-12-15T14:52:22.046Z,94263
2022-12-15T14:53:30.748Z,94261